^^
Datos históricos de la estación: Murcia-Puente Tocinos
Diario Informe para Enero 31, 2019 Unidades:  Métrico    Ingés   Ambas
Diario Semanal Mensual Anual
  Máxima: Mínima: Promedio:
Temperatura: 27.1 °C 17.8 °C 22.3 °C
Punto de rocio: 15.2 °C 12.9 °C 14 °C
Humedad: 78% 43% 61%
Velocidad viento: 20.1km/h 2.2km/h 8.2km/h
Racha viento: 38.9km/h - -
Viento- - SO
Presión: 1020.7 hPa 1018.0 hPa -
Precipitación: 0.0 mm    
 
 
Tabla de datos para Enero 31, 2019
Hora Temperatura Punto de rocio Presión Viento Velocidad viento Racha viento Humedad Intensidad lluvia(por hora) Nubes
00:04 20 °C 15.2 °C 1020.4 hPa SO 5.9 km/h 9.7 km/h 74% 0.0 mm
00:09 20 °C 15.2 °C 1020.4 hPa SO 5.8 km/h 9.7 km/h 74% 0.0 mm
00:14 20 °C 15.2 °C 1020.3 hPa SO 6.3 km/h 11.3 km/h 73.9% 0.0 mm
00:19 19.9 °C 15.1 °C 1020.3 hPa SO 6.5 km/h 8.4 km/h 74% 0.0 mm
00:24 19.9 °C 15.1 °C 1020.4 hPa SO 6.5 km/h 8 km/h 74% 0.0 mm
00:29 19.9 °C 15.1 °C 1020.4 hPa SSO 6.5 km/h 8 km/h 74% 0.0 mm
00:34 19.9 °C 15.1 °C 1020.4 hPa SSO 5.1 km/h 8 km/h 74% 0.0 mm
00:39 19.8 °C 15.1 °C 1020.4 hPa SSO 4.7 km/h 8 km/h 73.9% 0.0 mm
00:44 19.8 °C 15.1 °C 1020.3 hPa Sur 4.7 km/h 9.3 km/h 74% 0.0 mm
00:49 19.8 °C 14.9 °C 1020.3 hPa Sur 4.7 km/h 9.7 km/h 73.5% 0.0 mm
00:54 19.8 °C 15 °C 1020.3 hPa Sur 6 km/h 11.1 km/h 73.8% 0.0 mm
00:59 19.8 °C 15.1 °C 1020.2 hPa Sur 6.5 km/h 11.3 km/h 74% 0.0 mm
01:04 19.7 °C 14.9 °C 1020.2 hPa Sur 5.1 km/h 8 km/h 74% 0.0 mm
01:09 19.7 °C 15 °C 1020.2 hPa SSE 4.7 km/h 5.6 km/h 74.4% 0.0 mm
01:14 19.6 °C 15 °C 1020.1 hPa SSE 3.5 km/h 7.6 km/h 75% 0.0 mm
01:19 19.4 °C 15 °C 1020.1 hPa SSE 3.2 km/h 8 km/h 75.6% 0.0 mm
01:24 19.3 °C 14.9 °C 1020.1 hPa SSE 4.6 km/h 8 km/h 76% 0.0 mm
01:29 19.2 °C 14.9 °C 1020.0 hPa SSE 5 km/h 9.3 km/h 76% 0.0 mm
01:34 19.2 °C 14.9 °C 1020.0 hPa SSE 5.6 km/h 9.7 km/h 76% 0.0 mm
01:39 19.1 °C 14.8 °C 1020.0 hPa SSE 5.8 km/h 9.7 km/h 76% 0.0 mm
01:44 19.1 °C 14.8 °C 1019.9 hPa SSE 6.3 km/h 10 km/h 76% 0.0 mm
01:49 18.9 °C 14.6 °C 1019.9 hPa SSE 6.5 km/h 11.9 km/h 76% 0.0 mm
01:54 18.9 °C 14.5 °C 1019.9 hPa Sur 6.8 km/h 11.3 km/h 76% 0.0 mm
01:59 18.8 °C 14.6 °C 1019.9 hPa Sur 6.9 km/h 9.7 km/h 76.7% 0.0 mm
02:04 18.8 °C 14.7 °C 1019.9 hPa Sur 6 km/h 8.4 km/h 77% 0.0 mm
02:09 18.8 °C 14.6 °C 1019.9 hPa Sur 5.8 km/h 9.5 km/h 76.6% 0.0 mm
02:14 18.9 °C 14.6 °C 1019.8 hPa Sur 5.8 km/h 9.7 km/h 76% 0.0 mm
02:19 18.9 °C 14.6 °C 1019.8 hPa Sur 5.8 km/h 8.4 km/h 76% 0.0 mm
02:24 18.9 °C 14.6 °C 1019.8 hPa SSE 5.8 km/h 9.5 km/h 76% 0.0 mm
02:29 18.9 °C 14.6 °C 1019.7 hPa Sur 5.8 km/h 9.7 km/h 76% 0.0 mm
02:34 18.9 °C 14.5 °C 1019.7 hPa SSO 5.2 km/h 8.4 km/h 75.8% 0.0 mm
02:39 18.9 °C 14.4 °C 1019.8 hPa SSO 5 km/h 11.1 km/h 75% 0.0 mm
02:44 18.9 °C 14.4 °C 1019.8 hPa SO 6.1 km/h 11.3 km/h 75% 0.0 mm
02:49 19 °C 14.4 °C 1019.8 hPa SSO 6.5 km/h 9.7 km/h 75% 0.0 mm
02:54 19 °C 14.4 °C 1019.8 hPa SSO 5.4 km/h 9.3 km/h 75% 0.0 mm
02:59 19 °C 14.4 °C 1019.8 hPa SO 5 km/h 9.7 km/h 75% 0.0 mm
03:04 19 °C 14.4 °C 1019.8 hPa ONO 4.7 km/h 9.7 km/h 75% 0.0 mm
03:09 18.9 °C 14.4 °C 1019.9 hPa NO 4.7 km/h 9.7 km/h 75.3% 0.0 mm
03:14 18.7 °C 14.5 °C 1019.9 hPa Oeste 4 km/h 8 km/h 76.5% 0.0 mm
03:19 18.4 °C 14.5 °C 1019.9 hPa SO 3.9 km/h 8 km/h 77.7% 0.0 mm
03:24 18.4 °C 14.5 °C 1019.9 hPa OSO 4.7 km/h 8.7 km/h 78% 0.0 mm
03:29 18.3 °C 14.4 °C 1019.9 hPa SO 5 km/h 9.7 km/h 78% 0.0 mm
03:34 18.4 °C 14.5 °C 1019.9 hPa SSO 5.6 km/h 9.7 km/h 78% 0.0 mm
03:39 18.4 °C 14.5 °C 1019.9 hPa Sur 5.8 km/h 11.1 km/h 78% 0.0 mm
03:44 18.4 °C 14.4 °C 1019.7 hPa SSE 6.3 km/h 11.3 km/h 77.7% 0.0 mm
03:49 18.4 °C 14.5 °C 1019.7 hPa Sur 6.5 km/h 13 km/h 78% 0.0 mm
03:54 18.3 °C 14.4 °C 1019.7 hPa Sur 7.9 km/h 13 km/h 78% 0.0 mm
03:59 18.3 °C 14.4 °C 1019.6 hPa Sur 8.4 km/h 13.7 km/h 78% 0.0 mm
04:04 18.3 °C 14.4 °C 1019.6 hPa Sur 7.7 km/h 14.8 km/h 77.9% 0.0 mm
04:09 18.4 °C 14.3 °C 1019.6 hPa SSO 7.6 km/h 14.5 km/h 77% 0.0 mm
04:14 18.4 °C 14.3 °C 1019.4 hPa Sur 8.4 km/h 15.6 km/h 77% 0.0 mm
04:19 18.4 °C 14.2 °C 1019.4 hPa Sur 8.7 km/h 16.1 km/h 76.7% 0.0 mm
04:24 18.4 °C 14.1 °C 1019.4 hPa SSO 9.3 km/h 14.5 km/h 76% 0.0 mm
04:29 18.3 °C 14 °C 1019.3 hPa SSO 9.5 km/h 12.9 km/h 76% 0.0 mm
04:34 18.3 °C 14 °C 1019.3 hPa SO 8 km/h 11.3 km/h 76% 0.0 mm
04:39 18.4 °C 14.1 °C 1019.3 hPa SO 7.6 km/h 9.7 km/h 76% 0.0 mm
04:44 18.4 °C 14 °C 1019.2 hPa OSO 6.2 km/h 10 km/h 75.3% 0.0 mm
04:49 18.6 °C 14 °C 1019.2 hPa OSO 5.8 km/h 9.7 km/h 75% 0.0 mm
04:54 18.6 °C 14 °C 1019.4 hPa OSO 5.8 km/h 9.7 km/h 74.4% 0.0 mm
04:59 18.6 °C 14 °C 1019.4 hPa OSO 5.8 km/h 9.7 km/h 74.9% 0.0 mm
05:04 18.6 °C 14 °C 1019.4 hPa SO 5.1 km/h 9.5 km/h 75% 0.0 mm
05:09 18.6 °C 13.9 °C 1019.4 hPa SO 5 km/h 9.7 km/h 74.4% 0.0 mm
05:14 18.6 °C 13.9 °C 1019.4 hPa SSO 5 km/h 9.7 km/h 73.9% 0.0 mm
05:19 18.7 °C 13.8 °C 1019.4 hPa SSE 5 km/h 8.4 km/h 73% 0.0 mm
05:24 18.7 °C 13.8 °C 1019.4 hPa SSE 4.7 km/h 8.4 km/h 73% 0.0 mm
05:29 18.7 °C 13.9 °C 1019.4 hPa SSE 4.7 km/h 8 km/h 74% 0.0 mm
05:34 18.6 °C 13.9 °C 1019.4 hPa SSE 4.9 km/h 8.4 km/h 74.3% 0.0 mm
05:39 18.4 °C 14 °C 1019.4 hPa Sur 5 km/h 9.3 km/h 75.1% 0.0 mm
05:44 18.3 °C 14.1 °C 1019.4 hPa SSE 5.6 km/h 9.7 km/h 76% 0.0 mm
05:49 18.2 °C 14 °C 1019.4 hPa SSO 5.8 km/h 9.7 km/h 76.3% 0.0 mm
05:54 18.2 °C 14 °C 1019.4 hPa Sur 5.8 km/h 13 km/h 76.3% 0.0 mm
05:59 18.2 °C 13.9 °C 1019.4 hPa SSO 5.8 km/h 12.9 km/h 76% 0.0 mm
06:04 18.3 °C 13.8 °C 1019.4 hPa Sur 7.8 km/h 11.3 km/h 75.1% 0.0 mm
06:09 18.4 °C 13.8 °C 1019.4 hPa SSO 8.4 km/h 11.3 km/h 74.5% 0.0 mm
06:14 18.4 °C 13.7 °C 1019.3 hPa Sur 6.4 km/h 9.7 km/h 74% 0.0 mm
06:19 18.5 °C 13.8 °C 1019.3 hPa SSE 5.8 km/h 8 km/h 74% 0.0 mm
06:24 18.5 °C 13.8 °C 1019.4 hPa SE 4.9 km/h 8 km/h 74% 0.0 mm
06:29 18.4 °C 13.9 °C 1019.4 hPa SSE 4.7 km/h 9.3 km/h 74.8% 0.0 mm
06:34 18.3 °C 13.8 °C 1019.4 hPa SSE 4.9 km/h 9.7 km/h 75% 0.0 mm
06:39 18.2 °C 13.9 °C 1019.4 hPa Sur 5 km/h 8 km/h 75.9% 0.0 mm
06:44 18.2 °C 13.9 °C 1019.4 hPa Sur 4.7 km/h 8 km/h 76% 0.0 mm
06:49 18.2 °C 13.9 °C 1019.4 hPa Sur 4.7 km/h 8 km/h 76% 0.0 mm
06:54 18.1 °C 13.7 °C 1019.7 hPa SSO 3.3 km/h 11.1 km/h 75.6% 0.0 mm
06:59 18.2 °C 13.6 °C 1019.7 hPa SO 2.9 km/h 11.3 km/h 74.6% 0.0 mm
07:04 18.3 °C 13.6 °C 1019.7 hPa SO 5.7 km/h 9.7 km/h 74% 0.0 mm
07:09 18.4 °C 13.4 °C 1019.7 hPa SO 6.5 km/h 11.1 km/h 73% 0.0 mm
07:14 18.4 °C 13.3 °C 1019.7 hPa SO 6.5 km/h 11.3 km/h 72.4% 0.0 mm
07:19 18.6 °C 13.2 °C 1019.7 hPa SO 6.5 km/h 11.3 km/h 71.3% 0.0 mm
07:24 18.7 °C 13 °C 1019.7 hPa SO 7.3 km/h 11.3 km/h 69.6% 0.0 mm
07:29 18.9 °C 13 °C 1019.7 hPa SO 7.6 km/h 11.3 km/h 68.5% 0.0 mm
07:34 19 °C 13 °C 1019.7 hPa SSO 7.1 km/h 11.9 km/h 68% 0.0 mm
07:39 19.1 °C 13 °C 1019.7 hPa SSO 6.9 km/h 11.3 km/h 67.6% 0.0 mm
07:44 19.2 °C 12.9 °C 1019.6 hPa SO 6.9 km/h 11.3 km/h 67% 0.0 mm
07:49 19.2 °C 13.1 °C 1019.6 hPa SSE 6.9 km/h 11.3 km/h 67.8% 0.0 mm
07:54 18.9 °C 13.4 °C 1019.9 hPa ESE 5.5 km/h 9.7 km/h 70.2% 0.0 mm
07:59 18.7 °C 13.4 °C 1019.9 hPa ESE 5 km/h 7.4 km/h 71.6% 0.0 mm
08:04 18.4 °C 13.4 °C 1019.9 hPa ESE 3.6 km/h 8 km/h 72.8% 0.0 mm
08:09 18.2 °C 13.5 °C 1019.9 hPa SE 3.2 km/h 9.3 km/h 73.9% 0.0 mm
08:14 18 °C 13.5 °C 1019.9 hPa SE 4.3 km/h 9.7 km/h 75% 0.0 mm
08:19 17.8 °C 13.5 °C 1019.9 hPa SE 4.7 km/h 9.3 km/h 75.7% 0.0 mm
08:24 17.8 °C 13.5 °C 1020.1 hPa SSE 4.7 km/h 9.7 km/h 76% 0.0 mm
08:29 17.8 °C 13.5 °C 1020.1 hPa SSE 4.7 km/h 9.7 km/h 76% 0.0 mm
08:34 17.8 °C 13.5 °C 1020.1 hPa SSO 4.9 km/h 8.4 km/h 75.7% 0.0 mm
08:39 18.1 °C 13.6 °C 1020.1 hPa SSO 5 km/h 8 km/h 74.7% 0.0 mm
08:44 18.5 °C 13.6 °C 1020.1 hPa SSO 5 km/h 11.1 km/h 73.4% 0.0 mm
08:49 18.8 °C 13.7 °C 1020.1 hPa SSO 5 km/h 11.3 km/h 72% 0.0 mm
08:54 19.2 °C 13.7 °C 1020.1 hPa SO 6.5 km/h 11.3 km/h 70.6% 0.0 mm
08:59 19.5 °C 13.8 °C 1020.1 hPa Oeste 6.9 km/h 11.1 km/h 69.4% 0.0 mm
09:04 19.8 °C 14 °C 1020.1 hPa Oeste 6 km/h 11.3 km/h 69% 0.0 mm
09:09 20.1 °C 14 °C 1020.3 hPa OSO 5.8 km/h 11.3 km/h 68.3% 0.0 mm
09:14 20.3 °C 14 °C 1020.3 hPa OSO 6.3 km/h 11.3 km/h 67.1% 0.0 mm
09:19 20.6 °C 14 °C 1020.3 hPa OSO 6.5 km/h 11.1 km/h 66.1% 0.0 mm
09:24 20.8 °C 14 °C 1020.5 hPa SO 6 km/h 11.3 km/h 65.1% 0.0 mm
09:29 21.1 °C 14.1 °C 1020.5 hPa OSO 5.8 km/h 11.3 km/h 64.6% 0.0 mm
09:34 21.2 °C 14.1 °C 1020.5 hPa Oeste 6.6 km/h 11.3 km/h 64% 0.0 mm
09:39 21.4 °C 14.3 °C 1020.7 hPa Oeste 6.9 km/h 9.5 km/h 64% 0.0 mm
09:44 21.6 °C 14.5 °C 1020.7 hPa ONO 5.2 km/h 9.7 km/h 64% 0.0 mm
09:49 21.8 °C 14.6 °C 1020.7 hPa ONO 4.7 km/h 9.7 km/h 63.7% 0.0 mm
09:54 21.9 °C 14.6 °C 1020.7 hPa Oeste 5.5 km/h 11.1 km/h 63% 0.0 mm
09:59 22.1 °C 14.7 °C 1020.7 hPa OSO 5.8 km/h 11.3 km/h 62.9% 0.0 mm
10:04 22.4 °C 14.5 °C 1020.7 hPa OSO 5.8 km/h 11.3 km/h 61.2% 0.0 mm
10:09 22.7 °C 14.4 °C 1020.7 hPa Oeste 5.8 km/h 11.3 km/h 59.9% 0.0 mm
10:14 22.8 °C 14.4 °C 1020.7 hPa OSO 5.2 km/h 9.5 km/h 59% 0.0 mm
10:19 23.1 °C 14.4 °C 1020.7 hPa Oeste 5 km/h 18.5 km/h 58% 0.0 mm
10:24 23.1 °C 14.4 °C 1020.7 hPa OSO 6.5 km/h 19.3 km/h 58% 0.0 mm
10:29 23.2 °C 14.5 °C 1020.7 hPa OSO 6.9 km/h 14.5 km/h 58% 0.0 mm
10:34 23.3 °C 14.6 °C 1020.7 hPa SO 8 km/h 14.5 km/h 58% 0.0 mm
10:39 23.5 °C 14.5 °C 1020.7 hPa Oeste 8.4 km/h 11.9 km/h 57.1% 0.0 mm
10:44 23.7 °C 14.7 °C 1020.6 hPa OSO 6.4 km/h 14.8 km/h 57.1% 0.0 mm
10:49 23.8 °C 14.7 °C 1020.6 hPa SO 5.8 km/h 24.1 km/h 56.7% 0.0 mm
10:54 24 °C 14.7 °C 1020.6 hPa OSO 8.6 km/h 24.1 km/h 55.9% 0.0 mm
10:59 24.1 °C 14.5 °C 1020.5 hPa Oeste 9.5 km/h 25.9 km/h 55.1% 0.0 mm
11:04 24.2 °C 14.6 °C 1020.5 hPa ONO 10.8 km/h 25.7 km/h 55% 0.0 mm
11:09 24.3 °C 14.7 °C 1020.5 hPa Oeste 11.1 km/h 22.5 km/h 55% 0.0 mm
11:14 24.3 °C 14.7 °C 1020.5 hPa Oeste 12.6 km/h 22.5 km/h 55% 0.0 mm
11:19 24.5 °C 14.8 °C 1020.5 hPa Oeste 13 km/h 14.5 km/h 54.8% 0.0 mm
11:24 24.7 °C 14.7 °C 1020.5 hPa OSO 9.5 km/h 25.9 km/h 53.8% 0.0 mm
11:29 24.8 °C 14.6 °C 1020.5 hPa Oeste 8.4 km/h 25.7 km/h 53.1% 0.0 mm
11:34 24.8 °C 14.6 °C 1020.5 hPa Oeste 11 km/h 22.5 km/h 53% 0.0 mm
11:39 25 °C 14.5 °C 1020.5 hPa Oeste 11.9 km/h 20.4 km/h 52.3% 0.0 mm
11:44 25.2 °C 14.5 °C 1020.4 hPa ONO 10.7 km/h 28.2 km/h 51.6% 0.0 mm
11:49 25.2 °C 14.3 °C 1020.4 hPa ONO 10.3 km/h 31.7 km/h 50.8% 0.0 mm
11:54 25.3 °C 14.4 °C 1020.4 hPa ONO 14.3 km/h 35.9 km/h 50.8% 0.0 mm
11:59 25.3 °C 14.3 °C 1020.4 hPa ONO 15.6 km/h 35.4 km/h 50.7% 0.0 mm
12:04 25.3 °C 14.4 °C 1020.4 hPa ONO 16.2 km/h 27.4 km/h 50.9% 0.0 mm
12:09 25.3 °C 14.2 °C 1020.4 hPa ONO 16.4 km/h 25.9 km/h 50.2% 0.0 mm
12:14 25.5 °C 14.6 °C 1020.2 hPa ONO 13.8 km/h 25.7 km/h 50.9% 0.0 mm
12:19 25.6 °C 14.4 °C 1020.2 hPa Oeste 13 km/h 20.4 km/h 50.1% 0.0 mm
12:24 25.6 °C 14.4 °C 1020.2 hPa Oeste 11.6 km/h 20.9 km/h 50.1% 0.0 mm
12:29 25.6 °C 14.3 °C 1019.9 hPa Oeste 11.1 km/h 24.5 km/h 49.8% 0.0 mm
12:34 25.7 °C 14.1 °C 1019.9 hPa Oeste 12.6 km/h 24.1 km/h 49% 0.0 mm
12:39 25.8 °C 14.2 °C 1019.9 hPa Oeste 13 km/h 26.2 km/h 48.8% 0.0 mm
12:44 25.9 °C 14 °C 1019.5 hPa Oeste 14.4 km/h 34.3 km/h 47.9% 0.0 mm
12:49 25.9 °C 14.1 °C 1019.5 hPa Oeste 14.8 km/h 33.8 km/h 48% 0.0 mm
12:54 25.9 °C 14.1 °C 1019.5 hPa ONO 18.6 km/h 38.9 km/h 48% 0.0 mm
12:59 26 °C 13.9 °C 1019.4 hPa ONO 19.8 km/h 38.6 km/h 47.2% 0.0 mm
13:04 26 °C 14 °C 1019.4 hPa ONO 19.8 km/h 35.4 km/h 47.7% 0.0 mm
13:09 26.1 °C 14 °C 1019.4 hPa Oeste 19.8 km/h 30.6 km/h 47.4% 0.0 mm
13:14 26.2 °C 14 °C 1019.3 hPa Oeste 17.3 km/h 30.6 km/h 47.2% 0.0 mm
13:19 26.2 °C 13.9 °C 1019.3 hPa Oeste 16.4 km/h 27.4 km/h 47% 0.0 mm
13:24 26.2 °C 13.9 °C 1019.3 hPa Oeste 16.4 km/h 29.6 km/h 46.7% 0.0 mm
13:29 26.2 °C 13.7 °C 1019.1 hPa ONO 16.4 km/h 30.6 km/h 46.2% 0.0 mm
13:34 26.2 °C 13.7 °C 1019.1 hPa ONO 19 km/h 31.7 km/h 46% 0.0 mm
13:39 26.2 °C 13.7 °C 1019.1 hPa ONO 19.8 km/h 32.2 km/h 46% 0.0 mm
13:44 26.3 °C 13.8 °C 1019.1 hPa ONO 20.1 km/h 37.8 km/h 46% 0.0 mm
13:49 26.4 °C 13.8 °C 1019.1 hPa ONO 20.1 km/h 37 km/h 46% 0.0 mm
13:54 26.6 °C 13.8 °C 1019.1 hPa ONO 17.3 km/h 30.6 km/h 45.5% 0.0 mm
13:59 26.5 °C 13.7 °C 1018.9 hPa ONO 16.4 km/h 30.6 km/h 45.3% 0.0 mm
14:04 26.6 °C 13.9 °C 1018.9 hPa ONO 18 km/h 34.3 km/h 45.5% 0.0 mm
14:09 26.6 °C 13.8 °C 1018.9 hPa ONO 18.4 km/h 33.8 km/h 45.4% 0.0 mm
14:14 26.7 °C 13.9 °C 1018.8 hPa ONO 18.4 km/h 29.8 km/h 45.4% 0.0 mm
14:19 26.7 °C 13.9 °C 1018.8 hPa ONO 18.4 km/h 30.6 km/h 45.4% 0.0 mm
14:24 26.7 °C 13.9 °C 1018.8 hPa Oeste 16.9 km/h 29.8 km/h 45.3% 0.0 mm
14:29 26.7 °C 13.9 °C 1018.7 hPa ONO 16.4 km/h 30.6 km/h 45.3% 0.0 mm
14:34 26.6 °C 13.8 °C 1018.7 hPa ONO 17.9 km/h 29.6 km/h 45.2% 0.0 mm
14:39 26.6 °C 13.7 °C 1018.7 hPa ONO 18.4 km/h 25.9 km/h 45.1% 0.0 mm
14:44 26.7 °C 13.8 °C 1018.5 hPa ONO 15.7 km/h 31.5 km/h 45.2% 0.0 mm
14:49 26.7 °C 13.9 °C 1018.5 hPa ONO 14.8 km/h 32.2 km/h 45.5% 0.0 mm
14:54 26.7 °C 14.1 °C 1018.5 hPa ONO 14.2 km/h 24.1 km/h 46% 0.0 mm
14:59 26.7 °C 13.8 °C 1018.4 hPa ONO 14 km/h 22.2 km/h 45% 0.0 mm
15:04 26.7 °C 13.9 °C 1018.4 hPa ONO 12.6 km/h 22.5 km/h 45.1% 0.0 mm
15:09 26.8 °C 14.1 °C 1018.4 hPa ONO 12.2 km/h 22.5 km/h 45.5% 0.0 mm
15:14 26.8 °C 14 °C 1018.3 hPa ONO 12 km/h 24.1 km/h 45.2% 0.0 mm
15:19 26.8 °C 13.9 °C 1018.3 hPa ONO 11.9 km/h 24.1 km/h 45% 0.0 mm
15:24 26.7 °C 14 °C 1018.3 hPa ONO 12.8 km/h 22.5 km/h 45.7% 0.0 mm
15:29 26.7 °C 13.9 °C 1018.3 hPa Oeste 13 km/h 22.5 km/h 45.5% 0.0 mm
15:34 26.7 °C 13.9 °C 1018.3 hPa OSO 12.4 km/h 20.9 km/h 45.4% 0.0 mm
15:39 26.8 °C 13.7 °C 1018.3 hPa OSO 12.2 km/h 22.2 km/h 44.5% 0.0 mm
15:44 26.9 °C 13.8 °C 1018.2 hPa Oeste 10.5 km/h 22.5 km/h 44.3% 0.0 mm
15:49 27.1 °C 13.9 °C 1018.2 hPa OSO 10 km/h 20.4 km/h 44.2% 0.0 mm
15:54 27.1 °C 13.8 °C 1018.2 hPa Oeste 10.8 km/h 20.9 km/h 44% 0.0 mm
15:59 27.1 °C 13.8 °C 1018.2 hPa Oeste 11.1 km/h 22.5 km/h 44% 0.0 mm
16:04 27 °C 13.7 °C 1018.2 hPa Oeste 11.1 km/h 22.5 km/h 44% 0.0 mm
16:09 27.1 °C 13.8 °C 1018.2 hPa OSO 11.1 km/h 25.6 km/h 44% 0.0 mm
16:14 27 °C 13.7 °C 1018.1 hPa OSO 10.5 km/h 25.9 km/h 44% 0.0 mm
16:19 26.9 °C 13.6 °C 1018.1 hPa OSO 10.3 km/h 25.9 km/h 43.9% 0.0 mm
16:24 26.9 °C 13.6 °C 1018.1 hPa OSO 12.9 km/h 25.7 km/h 44% 0.0 mm
16:29 26.9 °C 13.6 °C 1018.0 hPa OSO 13.7 km/h 20.9 km/h 44% 0.0 mm
16:34 26.8 °C 13.6 °C 1018.0 hPa Oeste 11.1 km/h 17.7 km/h 44% 0.0 mm
16:39 26.8 °C 13.5 °C 1018.1 hPa OSO 10.3 km/h 16.7 km/h 44% 0.0 mm
16:44 26.8 °C 13.6 °C 1018.1 hPa OSO 8.8 km/h 14.5 km/h 44.2% 0.0 mm
16:49 26.9 °C 13.5 °C 1018.1 hPa OSO 8.4 km/h 20.4 km/h 43.5% 0.0 mm
16:54 27.1 °C 13.4 °C 1018.1 hPa OSO 9.2 km/h 23.7 km/h 43% 0.0 mm
16:59 27.1 °C 13.4 °C 1018.0 hPa OSO 9.5 km/h 24.1 km/h 43% 0.0 mm
17:04 27 °C 13.3 °C 1018.0 hPa OSO 12.8 km/h 25.9 km/h 43% 0.0 mm
17:09 26.9 °C 13.5 °C 1018.0 hPa OSO 13.7 km/h 25.9 km/h 43.7% 0.0 mm
17:14 26.8 °C 13.5 °C 1018.0 hPa OSO 12.6 km/h 24.1 km/h 44% 0.0 mm
17:19 26.7 °C 13.5 °C 1018.0 hPa OSO 12.2 km/h 20.9 km/h 44% 0.0 mm
17:24 26.7 °C 13.4 °C 1018.2 hPa OSO 10.1 km/h 19.3 km/h 44.1% 0.0 mm
17:29 26.6 °C 13.7 °C 1018.2 hPa OSO 9.5 km/h 19.3 km/h 45% 0.0 mm
17:34 26.6 °C 13.6 °C 1018.2 hPa OSO 9.5 km/h 20.4 km/h 45% 0.0 mm
17:39 26.4 °C 13.5 °C 1018.2 hPa OSO 9.5 km/h 20.9 km/h 45% 0.0 mm
17:44 26.3 °C 13.5 °C 1018.2 hPa OSO 8.9 km/h 20.4 km/h 45% 0.0 mm
17:49 26.3 °C 13.6 °C 1018.2 hPa OSO 8.7 km/h 20.9 km/h 45.4% 0.0 mm
17:54 26.2 °C 13.6 °C 1018.3 hPa OSO 9.7 km/h 19.3 km/h 46% 0.0 mm
17:59 26.1 °C 13.5 °C 1018.3 hPa OSO 10 km/h 17.2 km/h 46% 0.0 mm
18:04 25.9 °C 13.4 °C 1018.3 hPa OSO 9.6 km/h 17.7 km/h 46% 0.0 mm
18:09 25.8 °C 13.5 °C 1018.4 hPa OSO 9.5 km/h 18.5 km/h 46.7% 0.0 mm
18:14 25.7 °C 13.6 °C 1018.4 hPa OSO 8.9 km/h 19.3 km/h 47% 0.0 mm
18:19 25.6 °C 13.5 °C 1018.4 hPa OSO 8.7 km/h 16.1 km/h 47% 0.0 mm
18:24 25.6 °C 13.4 °C 1018.5 hPa OSO 8.7 km/h 15.6 km/h 47% 0.0 mm
18:29 25.5 °C 13.3 °C 1018.5 hPa OSO 8.7 km/h 16.1 km/h 47% 0.0 mm
18:34 25.4 °C 13.3 °C 1018.5 hPa OSO 8.5 km/h 14.5 km/h 47.1% 0.0 mm
18:39 25.3 °C 13.5 °C 1018.7 hPa OSO 8.4 km/h 13.7 km/h 48% 0.0 mm
18:44 25.3 °C 13.5 °C 1018.7 hPa OSO 7.8 km/h 14.8 km/h 48% 0.0 mm
18:49 25.2 °C 13.4 °C 1018.7 hPa OSO 7.6 km/h 14.5 km/h 48% 0.0 mm
18:54 25.2 °C 13.4 °C 1019.0 hPa OSO 7.6 km/h 11.3 km/h 48% 0.0 mm
18:59 25.1 °C 13.6 °C 1019.0 hPa OSO 7.6 km/h 11.3 km/h 48.9% 0.0 mm
19:04 24.9 °C 13.5 °C 1019.0 hPa OSO 6.2 km/h 9.7 km/h 49% 0.0 mm
19:09 24.8 °C 13.5 °C 1019.1 hPa Oeste 5.8 km/h 8 km/h 49.4% 0.0 mm
19:14 24.7 °C 13.6 °C 1019.1 hPa SO 4.3 km/h 8.4 km/h 50% 0.0 mm
19:19 24.7 °C 13.5 °C 1019.1 hPa SO 3.9 km/h 9.5 km/h 50% 0.0 mm
19:24 24.6 °C 13.5 °C 1019.1 hPa SO 5.3 km/h 9.7 km/h 50% 0.0 mm
19:29 24.4 °C 13.5 °C 1019.1 hPa SSO 5.8 km/h 9.7 km/h 50.5% 0.0 mm
19:34 24.4 °C 13.7 °C 1019.1 hPa SSE 5.2 km/h 8.7 km/h 51.4% 0.0 mm
19:39 24.2 °C 13.7 °C 1019.3 hPa SSE 5 km/h 9.7 km/h 52.3% 0.0 mm
19:44 23.9 °C 13.7 °C 1019.3 hPa SSE 5.6 km/h 9.7 km/h 53% 0.0 mm
19:49 23.8 °C 13.7 °C 1019.3 hPa Sur 5.8 km/h 9.7 km/h 53% 0.0 mm
19:54 23.7 °C 13.8 °C 1019.5 hPa Sur 3.8 km/h 8.4 km/h 53.8% 0.0 mm
19:59 23.7 °C 13.8 °C 1019.5 hPa SE 3.2 km/h 8.4 km/h 54% 0.0 mm
20:04 23.5 °C 13.7 °C 1019.5 hPa SE 4.6 km/h 9.3 km/h 54% 0.0 mm
20:09 23.4 °C 13.8 °C 1019.5 hPa SE 5 km/h 9.7 km/h 54.9% 0.0 mm
20:14 23.3 °C 13.8 °C 1019.5 hPa SE 6.1 km/h 9.7 km/h 55% 0.0 mm
20:19 23.2 °C 13.7 °C 1019.5 hPa SE 6.5 km/h 11.1 km/h 55% 0.0 mm
20:24 23.2 °C 13.7 °C 1019.5 hPa SE 6.8 km/h 11.3 km/h 55% 0.0 mm
20:29 23.3 °C 13.7 °C 1019.5 hPa SE 6.9 km/h 11.3 km/h 55% 0.0 mm
20:34 23.3 °C 13.7 °C 1019.5 hPa SSE 6.9 km/h 11.3 km/h 54.8% 0.0 mm
20:39 23.4 °C 13.6 °C 1019.5 hPa Sur 6.9 km/h 11.3 km/h 54% 0.0 mm
20:44 23.5 °C 13.6 °C 1019.5 hPa Sur 7.4 km/h 11.9 km/h 54% 0.0 mm
20:49 23.6 °C 13.5 °C 1019.5 hPa Sur 7.6 km/h 11.3 km/h 53.3% 0.0 mm
20:54 23.6 °C 13.4 °C 1019.7 hPa Sur 7.1 km/h 11.3 km/h 53% 0.0 mm
20:59 23.6 °C 13.5 °C 1019.7 hPa Sur 6.9 km/h 10.3 km/h 53.1% 0.0 mm
21:04 23.5 °C 13.6 °C 1019.7 hPa Sur 6.5 km/h 11.1 km/h 54% 0.0 mm
21:09 23.4 °C 13.6 °C 1019.9 hPa SE 6.5 km/h 11.3 km/h 54.1% 0.0 mm
21:14 23.2 °C 13.7 °C 1019.9 hPa SE 5.4 km/h 9.5 km/h 55.3% 0.0 mm
21:19 22.8 °C 13.7 °C 1019.9 hPa ESE 5 km/h 9.7 km/h 56.5% 0.0 mm
21:24 22.5 °C 13.6 °C 1020.1 hPa ESE 6.1 km/h 9.7 km/h 57% 0.0 mm
21:29 22.4 °C 13.4 °C 1020.1 hPa ESE 6.5 km/h 11.1 km/h 57% 0.0 mm
21:34 22.4 °C 13.5 °C 1020.1 hPa ESE 6.8 km/h 11.3 km/h 56.9% 0.0 mm
21:39 22.6 °C 13.4 °C 1020.1 hPa ESE 6.9 km/h 9.7 km/h 56.2% 0.0 mm
21:44 22.7 °C 13.4 °C 1020.1 hPa SE 6.1 km/h 10.3 km/h 56% 0.0 mm
21:49 22.7 °C 13.5 °C 1020.1 hPa Sur 5.8 km/h 11.3 km/h 56.3% 0.0 mm
21:54 22.6 °C 13.6 °C 1020.1 hPa SSO 6.6 km/h 11.1 km/h 56.6% 0.0 mm
21:59 22.6 °C 13.6 °C 1020.1 hPa SSO 6.9 km/h 11.3 km/h 57% 0.0 mm
22:04 22.4 °C 13.5 °C 1020.1 hPa SSO 6.5 km/h 11.1 km/h 57% 0.0 mm
22:09 22.3 °C 13.4 °C 1020.2 hPa SSO 6.5 km/h 11.3 km/h 57% 0.0 mm
22:14 22.3 °C 13.3 °C 1020.2 hPa SSO 6.8 km/h 11.1 km/h 57% 0.0 mm
22:19 22.2 °C 13.6 °C 1020.2 hPa SSO 6.9 km/h 11.3 km/h 58% 0.0 mm
22:24 22.2 °C 13.6 °C 1020.3 hPa SSO 6.9 km/h 10 km/h 58% 0.0 mm
22:29 22.2 °C 13.6 °C 1020.3 hPa SSO 6.9 km/h 11.1 km/h 58% 0.0 mm
22:34 22.2 °C 13.4 °C 1020.3 hPa SO 6.6 km/h 11.3 km/h 57.3% 0.0 mm
22:39 22.1 °C 13.4 °C 1020.3 hPa Oeste 6.5 km/h 9.7 km/h 57.8% 0.0 mm
22:44 22 °C 13.6 °C 1020.3 hPa ONO 5.1 km/h 8 km/h 58.9% 0.0 mm
22:49 21.8 °C 13.6 °C 1020.3 hPa ONO 4.7 km/h 5.6 km/h 59.8% 0.0 mm
22:54 21.6 °C 13.7 °C 1020.3 hPa NO 2.8 km/h 5.6 km/h 60.6% 0.0 mm
22:59 21.3 °C 13.7 °C 1020.3 hPa ENE 2.2 km/h 7.4 km/h 61.5% 0.0 mm
23:04 21.2 °C 13.6 °C 1020.3 hPa ESE 3.5 km/h 8 km/h 62.2% 0.0 mm
23:09 21 °C 13.7 °C 1020.3 hPa SE 3.9 km/h 8 km/h 63% 0.0 mm
23:14 20.9 °C 13.8 °C 1020.3 hPa SSE 4.5 km/h 8.7 km/h 63.9% 0.0 mm
23:19 20.8 °C 13.8 °C 1020.3 hPa Sur 4.7 km/h 11.1 km/h 64% 0.0 mm
23:24 20.9 °C 13.6 °C 1020.3 hPa SSO 6.4 km/h 13 km/h 63% 0.0 mm
23:29 21 °C 13.6 °C 1020.2 hPa SSO 6.9 km/h 12.9 km/h 62.9% 0.0 mm
23:34 21 °C 13.4 °C 1020.2 hPa SSO 7.4 km/h 14 km/h 62% 0.0 mm
23:39 21 °C 13.5 °C 1020.2 hPa SSO 7.6 km/h 16.7 km/h 62% 0.0 mm
23:44 21.1 °C 13.6 °C 1020.0 hPa Sur 9.1 km/h 16.7 km/h 62% 0.0 mm
23:49 21.1 °C 13.6 °C 1020.0 hPa Sur 9.5 km/h 12.9 km/h 62% 0.0 mm
23:54 21.1 °C 13.6 °C 1020.1 hPa Sur 8.6 km/h 11.3 km/h 62% 0.0 mm
23:59 21.1 °C 13.5 °C 1020.1 hPa SSO 8.4 km/h 11.3 km/h 62% 0.0 mm
Murcia-Puente Tocinos, España
Compliments of Weather Underground - 2.75 mb

La estación de MeteoMurcia.com, publica sus datos en los siguientes proyectos:

Weather Underground PWS IMURCIAP2 Meteoclimatic www.awekas.at

W3Counter
Web Analytics